sensor_id;sensor_type;location;lat;lon;timestamp;temperature;humidity
68235;DHT22;55052;52.056;5.296;2024-03-02T00:00:51;9.70;93.60
68235;DHT22;55052;52.056;5.296;2024-03-02T00:03:19;9.70;93.70
68235;DHT22;55052;52.056;5.296;2024-03-02T00:05:50;9.70;93.70
68235;DHT22;55052;52.056;5.296;2024-03-02T00:08:26;9.80;93.80
68235;DHT22;55052;52.056;5.296;2024-03-02T00:11:00;9.80;93.80
68235;DHT22;55052;52.056;5.296;2024-03-02T00:13:30;9.80;93.80
68235;DHT22;55052;52.056;5.296;2024-03-02T00:15:58;9.80;93.80
68235;DHT22;55052;52.056;5.296;2024-03-02T00:18:34;9.80;93.80
68235;DHT22;55052;52.056;5.296;2024-03-02T00:21:01;9.80;93.80
68235;DHT22;55052;52.056;5.296;2024-03-02T00:23:31;9.80;93.80
68235;DHT22;55052;52.056;5.296;2024-03-02T00:25:58;9.80;93.80
68235;DHT22;55052;52.056;5.296;2024-03-02T00:28:32;9.80;93.80
68235;DHT22;55052;52.056;5.296;2024-03-02T00:31:10;9.90;93.80
68235;DHT22;55052;52.056;5.296;2024-03-02T00:36:08;9.90;93.90
68235;DHT22;55052;52.056;5.296;2024-03-02T00:38:49;9.90;93.90
68235;DHT22;55052;52.056;5.296;2024-03-02T00:41:27;9.90;93.90
68235;DHT22;55052;52.056;5.296;2024-03-02T00:44:04;9.90;94.00
68235;DHT22;55052;52.056;5.296;2024-03-02T00:46:37;9.90;94.10
68235;DHT22;55052;52.056;5.296;2024-03-02T00:49:23;9.80;94.20
68235;DHT22;55052;52.056;5.296;2024-03-02T00:51:51;9.80;94.20
68235;DHT22;55052;52.056;5.296;2024-03-02T00:54:25;9.80;94.40
68235;DHT22;55052;52.056;5.296;2024-03-02T00:56:53;9.70;94.50
68235;DHT22;55052;52.056;5.296;2024-03-02T00:59:23;9.60;94.60
68235;DHT22;55052;52.056;5.296;2024-03-02T01:01:49;9.60;94.70
68235;DHT22;55052;52.056;5.296;2024-03-02T01:04:16;9.60;94.80
68235;DHT22;55052;52.056;5.296;2024-03-02T01:06:43;9.60;95.00
68235;DHT22;55052;52.056;5.296;2024-03-02T01:09:10;9.50;95.10
68235;DHT22;55052;52.056;5.296;2024-03-02T01:11:39;9.40;95.20
68235;DHT22;55052;52.056;5.296;2024-03-02T01:14:06;9.40;95.50
68235;DHT22;55052;52.056;5.296;2024-03-02T01:16:33;9.40;95.60
68235;DHT22;55052;52.056;5.296;2024-03-02T01:18:59;9.40;95.70
68235;DHT22;55052;52.056;5.296;2024-03-02T01:21:27;9.30;95.90
68235;DHT22;55052;52.056;5.296;2024-03-02T01:23:53;9.30;96.00
68235;DHT22;55052;52.056;5.296;2024-03-02T01:26:20;9.30;96.10
68235;DHT22;55052;52.056;5.296;2024-03-02T01:28:47;9.20;96.20
68235;DHT22;55052;52.056;5.296;2024-03-02T01:31:14;9.20;96.30
68235;DHT22;55052;52.056;5.296;2024-03-02T01:33:41;9.20;96.40
68235;DHT22;55052;52.056;5.296;2024-03-02T01:36:08;9.20;96.50
68235;DHT22;55052;52.056;5.296;2024-03-02T01:38:35;9.20;96.70
68235;DHT22;55052;52.056;5.296;2024-03-02T01:41:02;9.10;96.70
68235;DHT22;55052;52.056;5.296;2024-03-02T01:43:29;9.10;96.80
68235;DHT22;55052;52.056;5.296;2024-03-02T01:45:55;9.10;96.90
68235;DHT22;55052;52.056;5.296;2024-03-02T01:48:23;9.00;97.00
68235;DHT22;55052;52.056;5.296;2024-03-02T01:50:50;9.00;97.00
68235;DHT22;55052;52.056;5.296;2024-03-02T01:53:17;9.00;97.10
68235;DHT22;55052;52.056;5.296;2024-03-02T01:55:44;9.00;97.30
68235;DHT22;55052;52.056;5.296;2024-03-02T01:58:11;9.00;97.30
68235;DHT22;55052;52.056;5.296;2024-03-02T02:00:38;9.00;97.40
68235;DHT22;55052;52.056;5.296;2024-03-02T02:03:05;9.00;97.50
68235;DHT22;55052;52.056;5.296;2024-03-02T02:05:34;9.00;97.60
68235;DHT22;55052;52.056;5.296;2024-03-02T02:08:01;8.90;97.70
68235;DHT22;55052;52.056;5.296;2024-03-02T02:10:28;8.90;97.70
68235;DHT22;55052;52.056;5.296;2024-03-02T02:12:55;8.90;97.80
68235;DHT22;55052;52.056;5.296;2024-03-02T02:17:49;8.90;98.00
68235;DHT22;55052;52.056;5.296;2024-03-02T02:20:16;8.80;98.10
68235;DHT22;55052;52.056;5.296;2024-03-02T02:25:23;8.80;98.30
68235;DHT22;55052;52.056;5.296;2024-03-02T02:27:50;8.80;98.40
68235;DHT22;55052;52.056;5.296;2024-03-02T02:30:22;8.70;98.40
68235;DHT22;55052;52.056;5.296;2024-03-02T02:32:50;8.70;98.50
68235;DHT22;55052;52.056;5.296;2024-03-02T02:35:16;8.70;98.60
68235;DHT22;55052;52.056;5.296;2024-03-02T02:37:44;8.70;98.70
68235;DHT22;55052;52.056;5.296;2024-03-02T02:40:12;8.70;98.70
68235;DHT22;55052;52.056;5.296;2024-03-02T02:42:39;8.70;98.80
68235;DHT22;55052;52.056;5.296;2024-03-02T02:45:06;8.60;98.90
68235;DHT22;55052;52.056;5.296;2024-03-02T02:47:34;8.70;99.00
68235;DHT22;55052;52.056;5.296;2024-03-02T02:50:03;8.60;99.10
68235;DHT22;55052;52.056;5.296;2024-03-02T02:52:34;8.60;99.10
68235;DHT22;55052;52.056;5.296;2024-03-02T02:55:04;8.50;99.10
68235;DHT22;55052;52.056;5.296;2024-03-02T02:57:34;8.50;99.20
68235;DHT22;55052;52.056;5.296;2024-03-02T03:00:05;8.50;99.20
68235;DHT22;55052;52.056;5.296;2024-03-02T03:02:40;8.50;99.20
68235;DHT22;55052;52.056;5.296;2024-03-02T03:05:12;8.50;99.30
68235;DHT22;55052;52.056;5.296;2024-03-02T03:07:41;8.40;99.30
68235;DHT22;55052;52.056;5.296;2024-03-02T03:10:08;8.40;99.30
68235;DHT22;55052;52.056;5.296;2024-03-02T03:12:35;8.40;99.30
68235;DHT22;55052;52.056;5.296;2024-03-02T03:15:04;8.40;99.40
68235;DHT22;55052;52.056;5.296;2024-03-02T03:17:35;8.40;99.40
68235;DHT22;55052;52.056;5.296;2024-03-02T03:20:02;8.40;99.40
68235;DHT22;55052;52.056;5.296;2024-03-02T03:22:30;8.40;99.40
68235;DHT22;55052;52.056;5.296;2024-03-02T03:24:58;8.40;99.40
68235;DHT22;55052;52.056;5.296;2024-03-02T03:27:26;8.40;99.40
68235;DHT22;55052;52.056;5.296;2024-03-02T03:29:53;8.30;99.40
68235;DHT22;55052;52.056;5.296;2024-03-02T03:32:21;8.30;99.40
68235;DHT22;55052;52.056;5.296;2024-03-02T03:34:48;8.30;99.40
68235;DHT22;55052;52.056;5.296;2024-03-02T03:37:15;8.30;99.50
68235;DHT22;55052;52.056;5.296;2024-03-02T03:39:42;8.30;99.40
68235;DHT22;55052;52.056;5.296;2024-03-02T03:42:09;8.30;99.50
68235;DHT22;55052;52.056;5.296;2024-03-02T03:44:36;8.30;99.40
68235;DHT22;55052;52.056;5.296;2024-03-02T03:47:02;8.30;99.50
68235;DHT22;55052;52.056;5.296;2024-03-02T03:49:29;8.30;99.50
68235;DHT22;55052;52.056;5.296;2024-03-02T03:51:56;8.30;99.50
68235;DHT22;55052;52.056;5.296;2024-03-02T03:54:23;8.30;99.50
68235;DHT22;55052;52.056;5.296;2024-03-02T03:56:50;8.30;99.50
68235;DHT22;55052;52.056;5.296;2024-03-02T03:59:17;8.40;99.50
68235;DHT22;55052;52.056;5.296;2024-03-02T04:01:43;8.30;99.50
68235;DHT22;55052;52.056;5.296;2024-03-02T04:04:10;8.30;99.50
68235;DHT22;55052;52.056;5.296;2024-03-02T04:06:37;8.30;99.50
68235;DHT22;55052;52.056;5.296;2024-03-02T04:09:04;8.30;99.80
68235;DHT22;55052;52.056;5.296;2024-03-02T04:11:30;8.30;99.50
68235;DHT22;55052;52.056;5.296;2024-03-02T04:13:57;8.40;99.50
68235;DHT22;55052;52.056;5.296;2024-03-02T04:16:25;8.40;99.50
68235;DHT22;55052;52.056;5.296;2024-03-02T04:18:51;8.40;99.50
68235;DHT22;55052;52.056;5.296;2024-03-02T04:21:18;8.40;99.50
68235;DHT22;55052;52.056;5.296;2024-03-02T04:23:45;8.40;99.50
68235;DHT22;55052;52.056;5.296;2024-03-02T04:26:12;8.40;99.60
68235;DHT22;55052;52.056;5.296;2024-03-02T04:28:39;8.40;99.60
68235;DHT22;55052;52.056;5.296;2024-03-02T04:31:06;8.40;99.60
68235;DHT22;55052;52.056;5.296;2024-03-02T04:33:33;8.40;99.60
68235;DHT22;55052;52.056;5.296;2024-03-02T04:36:00;8.50;99.60
68235;DHT22;55052;52.056;5.296;2024-03-02T04:38:26;8.40;99.60
68235;DHT22;55052;52.056;5.296;2024-03-02T04:40:55;8.40;99.60
68235;DHT22;55052;52.056;5.296;2024-03-02T04:43:22;8.40;99.60
68235;DHT22;55052;52.056;5.296;2024-03-02T04:45:48;8.50;99.60
68235;DHT22;55052;52.056;5.296;2024-03-02T04:48:15;8.40;99.60
68235;DHT22;55052;52.056;5.296;2024-03-02T04:50:42;8.40;99.60
68235;DHT22;55052;52.056;5.296;2024-03-02T04:53:09;8.40;99.50
68235;DHT22;55052;52.056;5.296;2024-03-02T04:55:36;8.40;99.50
68235;DHT22;55052;52.056;5.296;2024-03-02T04:58:06;8.40;99.50
68235;DHT22;55052;52.056;5.296;2024-03-02T05:00:34;8.30;99.50
68235;DHT22;55052;52.056;5.296;2024-03-02T05:03:02;8.30;99.50
68235;DHT22;55052;52.056;5.296;2024-03-02T05:05:29;8.30;99.40
68235;DHT22;55052;52.056;5.296;2024-03-02T05:07:55;8.30;99.40
68235;DHT22;55052;52.056;5.296;2024-03-02T05:10:22;8.30;99.40
68235;DHT22;55052;52.056;5.296;2024-03-02T05:12:49;8.30;99.50
68235;DHT22;55052;52.056;5.296;2024-03-02T05:15:27;8.30;99.50
68235;DHT22;55052;52.056;5.296;2024-03-02T05:17:54;8.30;99.50
68235;DHT22;55052;52.056;5.296;2024-03-02T05:20:21;8.30;99.40
68235;DHT22;55052;52.056;5.296;2024-03-02T05:22:48;8.20;99.40
68235;DHT22;55052;52.056;5.296;2024-03-02T05:25:16;8.30;99.40
68235;DHT22;55052;52.056;5.296;2024-03-02T05:27:43;8.30;99.40
68235;DHT22;55052;52.056;5.296;2024-03-02T05:30:10;8.20;99.40
68235;DHT22;55052;52.056;5.296;2024-03-02T05:32:37;8.20;99.30
68235;DHT22;55052;52.056;5.296;2024-03-02T05:35:04;8.20;99.30
68235;DHT22;55052;52.056;5.296;2024-03-02T05:37:32;8.20;99.30
68235;DHT22;55052;52.056;5.296;2024-03-02T05:39:58;8.20;99.20
68235;DHT22;55052;52.056;5.296;2024-03-02T05:42:26;8.10;99.20
68235;DHT22;55052;52.056;5.296;2024-03-02T05:44:53;8.10;99.20
68235;DHT22;55052;52.056;5.296;2024-03-02T05:47:20;8.10;99.20
68235;DHT22;55052;52.056;5.296;2024-03-02T05:49:47;8.10;99.20
68235;DHT22;55052;52.056;5.296;2024-03-02T05:52:14;8.10;99.20
68235;DHT22;55052;52.056;5.296;2024-03-02T05:54:41;8.10;99.20
68235;DHT22;55052;52.056;5.296;2024-03-02T05:57:08;8.10;99.10
68235;DHT22;55052;52.056;5.296;2024-03-02T05:59:48;8.10;99.10
68235;DHT22;55052;52.056;5.296;2024-03-02T06:02:15;8.10;99.10
68235;DHT22;55052;52.056;5.296;2024-03-02T06:04:42;8.10;99.10
68235;DHT22;55052;52.056;5.296;2024-03-02T06:07:09;8.10;99.10
68235;DHT22;55052;52.056;5.296;2024-03-02T06:09:36;8.10;99.10
68235;DHT22;55052;52.056;5.296;2024-03-02T06:12:03;8.10;99.10
68235;DHT22;55052;52.056;5.296;2024-03-02T06:14:30;8.10;99.40
68235;DHT22;55052;52.056;5.296;2024-03-02T06:16:57;8.10;99.10
68235;DHT22;55052;52.056;5.296;2024-03-02T06:19:25;8.10;99.00
68235;DHT22;55052;52.056;5.296;2024-03-02T06:21:52;8.10;99.00
68235;DHT22;55052;52.056;5.296;2024-03-02T06:24:19;8.10;99.00
68235;DHT22;55052;52.056;5.296;2024-03-02T06:26:46;8.10;99.00
68235;DHT22;55052;52.056;5.296;2024-03-02T06:29:13;8.10;99.00
68235;DHT22;55052;52.056;5.296;2024-03-02T06:31:39;8.10;99.00
68235;DHT22;55052;52.056;5.296;2024-03-02T06:34:07;8.10;98.90
68235;DHT22;55052;52.056;5.296;2024-03-02T06:36:35;8.10;99.00
68235;DHT22;55052;52.056;5.296;2024-03-02T06:39:02;8.10;98.90
68235;DHT22;55052;52.056;5.296;2024-03-02T06:41:28;8.10;99.00
68235;DHT22;55052;52.056;5.296;2024-03-02T06:43:55;8.10;98.90
68235;DHT22;55052;52.056;5.296;2024-03-02T06:46:26;8.10;98.90
68235;DHT22;55052;52.056;5.296;2024-03-02T06:48:53;8.10;98.90
68235;DHT22;55052;52.056;5.296;2024-03-02T06:51:20;8.10;98.90
68235;DHT22;55052;52.056;5.296;2024-03-02T06:53:47;8.20;99.30
68235;DHT22;55052;52.056;5.296;2024-03-02T06:56:14;8.10;98.90
68235;DHT22;55052;52.056;5.296;2024-03-02T06:58:41;8.10;98.80
68235;DHT22;55052;52.056;5.296;2024-03-02T07:01:09;8.10;98.80
68235;DHT22;55052;52.056;5.296;2024-03-02T07:03:36;8.20;98.80
68235;DHT22;55052;52.056;5.296;2024-03-02T07:06:03;8.20;98.80
68235;DHT22;55052;52.056;5.296;2024-03-02T07:08:31;8.20;98.70
68235;DHT22;55052;52.056;5.296;2024-03-02T07:10:58;8.20;98.70
68235;DHT22;55052;52.056;5.296;2024-03-02T07:13:25;8.20;98.70
68235;DHT22;55052;52.056;5.296;2024-03-02T07:15:52;8.20;98.70
68235;DHT22;55052;52.056;5.296;2024-03-02T07:18:31;8.20;98.70
68235;DHT22;55052;52.056;5.296;2024-03-02T07:20:58;8.20;98.70
68235;DHT22;55052;52.056;5.296;2024-03-02T07:23:27;8.20;98.60
68235;DHT22;55052;52.056;5.296;2024-03-02T07:25:54;8.20;98.60
68235;DHT22;55052;52.056;5.296;2024-03-02T07:28:26;8.20;98.60
68235;DHT22;55052;52.056;5.296;2024-03-02T07:31:02;8.20;98.50
68235;DHT22;55052;52.056;5.296;2024-03-02T07:33:31;8.30;98.50
68235;DHT22;55052;52.056;5.296;2024-03-02T07:35:59;8.30;98.50
68235;DHT22;55052;52.056;5.296;2024-03-02T07:38:31;8.30;98.40
68235;DHT22;55052;52.056;5.296;2024-03-02T07:40:58;8.30;98.40
68235;DHT22;55052;52.056;5.296;2024-03-02T07:43:25;8.30;98.40
68235;DHT22;55052;52.056;5.296;2024-03-02T07:45:52;8.30;98.40
68235;DHT22;55052;52.056;5.296;2024-03-02T07:48:19;8.30;98.30
68235;DHT22;55052;52.056;5.296;2024-03-02T07:50:46;8.30;98.30
68235;DHT22;55052;52.056;5.296;2024-03-02T07:53:13;8.30;98.30
68235;DHT22;55052;52.056;5.296;2024-03-02T07:55:40;8.30;98.30
68235;DHT22;55052;52.056;5.296;2024-03-02T07:58:07;8.30;98.30
68235;DHT22;55052;52.056;5.296;2024-03-02T08:00:34;8.30;98.30
68235;DHT22;55052;52.056;5.296;2024-03-02T08:03:02;8.30;98.30
68235;DHT22;55052;52.056;5.296;2024-03-02T08:05:29;8.30;98.30
68235;DHT22;55052;52.056;5.296;2024-03-02T08:07:55;8.30;98.30
68235;DHT22;55052;52.056;5.296;2024-03-02T08:10:22;8.30;98.30
68235;DHT22;55052;52.056;5.296;2024-03-02T08:12:49;8.30;98.30
68235;DHT22;55052;52.056;5.296;2024-03-02T08:15:16;8.30;98.20
68235;DHT22;55052;52.056;5.296;2024-03-02T08:17:44;8.30;98.20
68235;DHT22;55052;52.056;5.296;2024-03-02T08:20:16;8.30;98.20
68235;DHT22;55052;52.056;5.296;2024-03-02T08:22:43;8.30;98.20
68235;DHT22;55052;52.056;5.296;2024-03-02T08:25:11;8.30;98.20
68235;DHT22;55052;52.056;5.296;2024-03-02T08:27:38;8.30;98.30
68235;DHT22;55052;52.056;5.296;2024-03-02T08:30:06;8.30;98.20
68235;DHT22;55052;52.056;5.296;2024-03-02T08:32:34;8.30;98.30
68235;DHT22;55052;52.056;5.296;2024-03-02T08:35:01;8.30;98.30
68235;DHT22;55052;52.056;5.296;2024-03-02T08:37:28;8.30;98.30
68235;DHT22;55052;52.056;5.296;2024-03-02T08:39:55;8.40;98.30
68235;DHT22;55052;52.056;5.296;2024-03-02T08:42:22;8.40;98.40
68235;DHT22;55052;52.056;5.296;2024-03-02T08:44:49;8.50;98.40
68235;DHT22;55052;52.056;5.296;2024-03-02T08:47:16;8.50;98.40
68235;DHT22;55052;52.056;5.296;2024-03-02T08:49:43;8.50;98.40
68235;DHT22;55052;52.056;5.296;2024-03-02T08:52:10;8.70;98.40
68235;DHT22;55052;52.056;5.296;2024-03-02T08:54:37;8.70;98.30
68235;DHT22;55052;52.056;5.296;2024-03-02T08:57:05;8.70;98.30
68235;DHT22;55052;52.056;5.296;2024-03-02T08:59:32;8.80;98.30
68235;DHT22;55052;52.056;5.296;2024-03-02T09:01:59;8.90;98.30
68235;DHT22;55052;52.056;5.296;2024-03-02T09:04:27;8.90;98.20
68235;DHT22;55052;52.056;5.296;2024-03-02T09:06:56;9.00;98.20
68235;DHT22;55052;52.056;5.296;2024-03-02T09:09:23;9.00;98.20
68235;DHT22;55052;52.056;5.296;2024-03-02T09:11:50;9.10;98.20
68235;DHT22;55052;52.056;5.296;2024-03-02T09:14:17;9.10;98.10
68235;DHT22;55052;52.056;5.296;2024-03-02T09:16:44;9.20;98.10
68235;DHT22;55052;52.056;5.296;2024-03-02T09:19:11;9.30;98.00
68235;DHT22;55052;52.056;5.296;2024-03-02T09:21:38;9.30;98.00
68235;DHT22;55052;52.056;5.296;2024-03-02T09:24:05;9.40;98.00
68235;DHT22;55052;52.056;5.296;2024-03-02T09:26:33;9.40;97.80
68235;DHT22;55052;52.056;5.296;2024-03-02T09:29:00;9.50;97.70
68235;DHT22;55052;52.056;5.296;2024-03-02T09:31:27;9.50;97.50
68235;DHT22;55052;52.056;5.296;2024-03-02T09:33:53;9.60;97.40
68235;DHT22;55052;52.056;5.296;2024-03-02T09:36:22;9.70;97.20
68235;DHT22;55052;52.056;5.296;2024-03-02T09:38:49;9.70;97.00
68235;DHT22;55052;52.056;5.296;2024-03-02T09:41:16;9.70;97.00
68235;DHT22;55052;52.056;5.296;2024-03-02T09:43:43;9.80;96.90
68235;DHT22;55052;52.056;5.296;2024-03-02T09:46:11;9.90;96.70
68235;DHT22;55052;52.056;5.296;2024-03-02T09:48:38;9.90;96.60
68235;DHT22;55052;52.056;5.296;2024-03-02T09:51:05;10.00;96.50
68235;DHT22;55052;52.056;5.296;2024-03-02T09:53:33;10.00;96.30
68235;DHT22;55052;52.056;5.296;2024-03-02T09:56:01;10.10;96.10
68235;DHT22;55052;52.056;5.296;2024-03-02T09:58:28;10.10;95.90
68235;DHT22;55052;52.056;5.296;2024-03-02T10:00:55;10.20;95.80
68235;DHT22;55052;52.056;5.296;2024-03-02T10:03:23;10.20;95.50
68235;DHT22;55052;52.056;5.296;2024-03-02T10:05:53;10.30;95.70
68235;DHT22;55052;52.056;5.296;2024-03-02T10:08:20;10.30;95.20
68235;DHT22;55052;52.056;5.296;2024-03-02T10:10:47;10.30;95.00
68235;DHT22;55052;52.056;5.296;2024-03-02T10:13:14;10.40;95.20
68235;DHT22;55052;52.056;5.296;2024-03-02T10:15:41;10.40;94.60
68235;DHT22;55052;52.056;5.296;2024-03-02T10:18:12;10.50;94.40
68235;DHT22;55052;52.056;5.296;2024-03-02T10:20:40;10.50;94.20
68235;DHT22;55052;52.056;5.296;2024-03-02T10:23:14;10.50;94.10
68235;DHT22;55052;52.056;5.296;2024-03-02T10:25:42;10.60;93.90
68235;DHT22;55052;52.056;5.296;2024-03-02T10:28:23;10.70;93.70
68235;DHT22;55052;52.056;5.296;2024-03-02T10:30:50;10.70;93.60
68235;DHT22;55052;52.056;5.296;2024-03-02T10:33:19;10.70;93.40
68235;DHT22;55052;52.056;5.296;2024-03-02T10:35:49;10.70;93.40
68235;DHT22;55052;52.056;5.296;2024-03-02T10:38:17;10.80;93.40
68235;DHT22;55052;52.056;5.296;2024-03-02T10:40:47;10.90;93.30
68235;DHT22;55052;52.056;5.296;2024-03-02T10:43:15;10.90;93.10
68235;DHT22;55052;52.056;5.296;2024-03-02T10:45:42;11.00;92.90
68235;DHT22;55052;52.056;5.296;2024-03-02T10:48:09;11.00;92.70
68235;DHT22;55052;52.056;5.296;2024-03-02T10:50:36;11.10;92.50
68235;DHT22;55052;52.056;5.296;2024-03-02T10:53:03;11.10;92.30
68235;DHT22;55052;52.056;5.296;2024-03-02T10:55:32;11.20;92.10
68235;DHT22;55052;52.056;5.296;2024-03-02T10:58:00;11.20;92.00
68235;DHT22;55052;52.056;5.296;2024-03-02T11:00:33;11.20;92.00
68235;DHT22;55052;52.056;5.296;2024-03-02T11:03:05;11.30;91.90
68235;DHT22;55052;52.056;5.296;2024-03-02T11:05:42;11.30;91.80
68235;DHT22;55052;52.056;5.296;2024-03-02T11:08:13;11.30;91.60
68235;DHT22;55052;52.056;5.296;2024-03-02T11:10:54;11.40;91.50
68235;DHT22;55052;52.056;5.296;2024-03-02T11:13:34;11.40;91.40
68235;DHT22;55052;52.056;5.296;2024-03-02T11:16:08;11.40;91.10
68235;DHT22;55052;52.056;5.296;2024-03-02T11:18:37;11.50;91.10
68235;DHT22;55052;52.056;5.296;2024-03-02T11:21:05;11.50;91.00
68235;DHT22;55052;52.056;5.296;2024-03-02T11:23:33;11.50;90.90
68235;DHT22;55052;52.056;5.296;2024-03-02T11:26:19;11.60;90.80
68235;DHT22;55052;52.056;5.296;2024-03-02T11:28:47;11.60;90.40
68235;DHT22;55052;52.056;5.296;2024-03-02T11:31:14;11.60;90.30
68235;DHT22;55052;52.056;5.296;2024-03-02T11:33:41;11.70;90.20
68235;DHT22;55052;52.056;5.296;2024-03-02T11:36:08;11.70;89.80
68235;DHT22;55052;52.056;5.296;2024-03-02T11:38:38;11.70;89.80
68235;DHT22;55052;52.056;5.296;2024-03-02T11:41:08;11.80;89.80
68235;DHT22;55052;52.056;5.296;2024-03-02T11:43:39;11.80;89.70
68235;DHT22;55052;52.056;5.296;2024-03-02T11:46:06;11.70;89.20
68235;DHT22;55052;52.056;5.296;2024-03-02T11:48:39;11.90;89.00
68235;DHT22;55052;52.056;5.296;2024-03-02T11:51:06;11.90;88.90
68235;DHT22;55052;52.056;5.296;2024-03-02T11:53:33;11.90;88.90
68235;DHT22;55052;52.056;5.296;2024-03-02T11:56:02;12.00;88.50
68235;DHT22;55052;52.056;5.296;2024-03-02T11:58:30;12.00;87.70
68235;DHT22;55052;52.056;5.296;2024-03-02T12:00:57;12.00;87.50
68235;DHT22;55052;52.056;5.296;2024-03-02T12:03:25;12.10;87.20
68235;DHT22;55052;52.056;5.296;2024-03-02T12:05:54;12.10;87.70
68235;DHT22;55052;52.056;5.296;2024-03-02T12:08:21;12.20;86.50
68235;DHT22;55052;52.056;5.296;2024-03-02T12:10:59;12.20;86.30
68235;DHT22;55052;52.056;5.296;2024-03-02T12:13:28;12.30;86.00
68235;DHT22;55052;52.056;5.296;2024-03-02T12:15:55;12.30;85.80
68235;DHT22;55052;52.056;5.296;2024-03-02T12:18:26;12.30;85.80
68235;DHT22;55052;52.056;5.296;2024-03-02T12:20:53;12.40;85.90
68235;DHT22;55052;52.056;5.296;2024-03-02T12:23:25;12.40;85.30
68235;DHT22;55052;52.056;5.296;2024-03-02T12:25:52;12.40;84.70
68235;DHT22;55052;52.056;5.296;2024-03-02T12:28:19;12.40;84.00
68235;DHT22;55052;52.056;5.296;2024-03-02T12:30:46;12.50;83.70
68235;DHT22;55052;52.056;5.296;2024-03-02T12:33:14;12.50;83.60
68235;DHT22;55052;52.056;5.296;2024-03-02T12:35:41;12.50;83.40
68235;DHT22;55052;52.056;5.296;2024-03-02T12:38:09;12.60;83.10
68235;DHT22;55052;52.056;5.296;2024-03-02T12:40:37;12.60;82.50
68235;DHT22;55052;52.056;5.296;2024-03-02T12:43:05;12.60;82.40
68235;DHT22;55052;52.056;5.296;2024-03-02T12:45:34;12.60;82.20
68235;DHT22;55052;52.056;5.296;2024-03-02T12:48:01;12.70;82.50
68235;DHT22;55052;52.056;5.296;2024-03-02T12:50:29;12.70;82.20
68235;DHT22;55052;52.056;5.296;2024-03-02T12:52:56;12.70;82.00
68235;DHT22;55052;52.056;5.296;2024-03-02T12:55:23;12.80;81.80
68235;DHT22;55052;52.056;5.296;2024-03-02T12:57:52;12.80;81.60
68235;DHT22;55052;52.056;5.296;2024-03-02T13:00:20;12.90;81.70
68235;DHT22;55052;52.056;5.296;2024-03-02T13:02:49;12.90;81.40
68235;DHT22;55052;52.056;5.296;2024-03-02T13:05:18;12.90;81.30
68235;DHT22;55052;52.056;5.296;2024-03-02T13:07:47;13.00;81.50
68235;DHT22;55052;52.056;5.296;2024-03-02T13:10:15;13.00;81.20
68235;DHT22;55052;52.056;5.296;2024-03-02T13:12:42;13.10;81.20
68235;DHT22;55052;52.056;5.296;2024-03-02T13:15:09;13.10;80.80
68235;DHT22;55052;52.056;5.296;2024-03-02T13:17:44;13.10;80.60
68235;DHT22;55052;52.056;5.296;2024-03-02T13:20:12;13.10;80.60
68235;DHT22;55052;52.056;5.296;2024-03-02T13:22:42;13.20;80.70
68235;DHT22;55052;52.056;5.296;2024-03-02T13:25:09;13.20;80.70
68235;DHT22;55052;52.056;5.296;2024-03-02T13:27:38;13.20;81.10
68235;DHT22;55052;52.056;5.296;2024-03-02T13:30:05;13.30;82.40
68235;DHT22;55052;52.056;5.296;2024-03-02T13:32:32;13.30;81.60
68235;DHT22;55052;52.056;5.296;2024-03-02T13:34:59;13.40;81.50
68235;DHT22;55052;52.056;5.296;2024-03-02T13:37:27;13.50;81.50
68235;DHT22;55052;52.056;5.296;2024-03-02T13:39:53;13.50;81.70
68235;DHT22;55052;52.056;5.296;2024-03-02T13:42:20;13.50;81.10
68235;DHT22;55052;52.056;5.296;2024-03-02T13:44:47;13.50;80.80
68235;DHT22;55052;52.056;5.296;2024-03-02T13:47:16;13.60;81.00
68235;DHT22;55052;52.056;5.296;2024-03-02T13:49:43;13.60;80.80
68235;DHT22;55052;52.056;5.296;2024-03-02T13:52:11;13.70;80.70
68235;DHT22;55052;52.056;5.296;2024-03-02T13:54:41;13.70;80.80
68235;DHT22;55052;52.056;5.296;2024-03-02T13:57:10;13.70;80.30
68235;DHT22;55052;52.056;5.296;2024-03-02T13:59:38;13.70;80.30
68235;DHT22;55052;52.056;5.296;2024-03-02T14:02:05;13.80;80.60
68235;DHT22;55052;52.056;5.296;2024-03-02T14:04:33;13.80;80.80
68235;DHT22;55052;52.056;5.296;2024-03-02T14:07:01;13.80;80.90
68235;DHT22;55052;52.056;5.296;2024-03-02T14:09:28;13.90;80.70
68235;DHT22;55052;52.056;5.296;2024-03-02T14:11:56;13.90;80.70
68235;DHT22;55052;52.056;5.296;2024-03-02T14:14:23;13.90;80.40
68235;DHT22;55052;52.056;5.296;2024-03-02T14:16:51;13.90;80.10
68235;DHT22;55052;52.056;5.296;2024-03-02T14:19:18;14.00;80.30
68235;DHT22;55052;52.056;5.296;2024-03-02T14:21:45;13.90;80.20
68235;DHT22;55052;52.056;5.296;2024-03-02T14:24:14;13.90;80.20
68235;DHT22;55052;52.056;5.296;2024-03-02T14:26:41;13.80;80.50
68235;DHT22;55052;52.056;5.296;2024-03-02T14:29:08;13.90;80.70
68235;DHT22;55052;52.056;5.296;2024-03-02T14:31:35;13.80;80.70
68235;DHT22;55052;52.056;5.296;2024-03-02T14:34:02;13.80;80.40
68235;DHT22;55052;52.056;5.296;2024-03-02T14:36:30;13.80;80.30
68235;DHT22;55052;52.056;5.296;2024-03-02T14:38:57;13.80;80.00
68235;DHT22;55052;52.056;5.296;2024-03-02T14:41:24;13.80;80.40
68235;DHT22;55052;52.056;5.296;2024-03-02T14:43:51;13.90;80.60
68235;DHT22;55052;52.056;5.296;2024-03-02T14:46:19;14.00;80.80
68235;DHT22;55052;52.056;5.296;2024-03-02T14:48:46;14.10;80.80
68235;DHT22;55052;52.056;5.296;2024-03-02T14:51:14;14.10;81.20
68235;DHT22;55052;52.056;5.296;2024-03-02T14:53:41;14.40;81.60
68235;DHT22;55052;52.056;5.296;2024-03-02T14:56:08;14.60;81.30
68235;DHT22;55052;52.056;5.296;2024-03-02T14:58:35;14.80;80.90
68235;DHT22;55052;52.056;5.296;2024-03-02T15:01:03;14.90;79.50
68235;DHT22;55052;52.056;5.296;2024-03-02T15:03:32;14.90;79.30
68235;DHT22;55052;52.056;5.296;2024-03-02T15:05:59;15.00;79.10
68235;DHT22;55052;52.056;5.296;2024-03-02T15:08:26;15.10;79.10
68235;DHT22;55052;52.056;5.296;2024-03-02T15:10:53;15.20;78.90
68235;DHT22;55052;52.056;5.296;2024-03-02T15:13:22;15.50;79.60
68235;DHT22;55052;52.056;5.296;2024-03-02T15:15:49;15.80;79.50
68235;DHT22;55052;52.056;5.296;2024-03-02T15:18:17;16.00;79.20
68235;DHT22;55052;52.056;5.296;2024-03-02T15:20:44;16.20;78.50
68235;DHT22;55052;52.056;5.296;2024-03-02T15:23:11;16.40;77.10
68235;DHT22;55052;52.056;5.296;2024-03-02T15:25:38;16.40;75.30
68235;DHT22;55052;52.056;5.296;2024-03-02T15:28:05;16.40;74.90
68235;DHT22;55052;52.056;5.296;2024-03-02T15:30:32;16.40;74.80
68235;DHT22;55052;52.056;5.296;2024-03-02T15:32:59;16.30;74.00
68235;DHT22;55052;52.056;5.296;2024-03-02T15:35:26;16.20;73.70
68235;DHT22;55052;52.056;5.296;2024-03-02T15:37:53;16.20;73.60
68235;DHT22;55052;52.056;5.296;2024-03-02T15:40:20;16.10;73.60
68235;DHT22;55052;52.056;5.296;2024-03-02T15:42:46;16.00;72.90
68235;DHT22;55052;52.056;5.296;2024-03-02T15:45:13;15.80;72.70
68235;DHT22;55052;52.056;5.296;2024-03-02T15:47:40;15.70;73.00
68235;DHT22;55052;52.056;5.296;2024-03-02T15:50:08;15.60;73.00
68235;DHT22;55052;52.056;5.296;2024-03-02T15:52:35;15.40;73.20